Station Historical Data
Daily Summary for November 19, 2017 Units:  English    Metric   Both
« Previous Day
Next Day »
Daily Weekly Monthly Yearly Custom
  High: Low: Average:
Temperature: 55.1 °F 36.3 °F 45.9 °F
Dew Point: 52.2 °F 29.0 °F 35 °F
Humidity: 90% 48% 67%
Wind Speed: 11.5mph 0.0mph 4.7mph
Wind Gust: 11.5mph - -
Wind- - SW
Pressure: 30.21 in 29.79 in -
Precipitation: 0.00 in    
Historical Graphs
 
 
Tabular Data for November 19, 2017
Time Temperature Dew Point Pressure Wind Wind Speed Wind Gust Humidity Rainfall Rate (Hourly) solar Conditions
00:02 55.1 °F 52.2 °F 29.79 in WNW 6.9 mph 6.9 mph 90% 0.03 in WeatherDisplay:10.37 W/m2 SCT
00:07 55.0 °F 52.1 °F 29.79 in WNW 6.9 mph 6.9 mph 90% 0.03 in WeatherDisplay:10.37 W/m2 SCT
00:12 54.7 °F 51.8 °F 29.79 in WNW 4.6 mph 4.6 mph 90% 0.03 in WeatherDisplay:10.37 W/m2 -RA
00:17 54.4 °F 51.2 °F 29.80 in WNW 5.8 mph 5.8 mph 89% 0.03 in WeatherDisplay:10.37 W/m2 -RA
00:22 54.1 °F 50.9 °F 29.80 in NNW 8.1 mph 8.1 mph 89% 0.02 in WeatherDisplay:10.37 W/m2 -RA
00:27 53.9 °F 50.7 °F 29.81 in West 9.2 mph 9.2 mph 89% 0.02 in WeatherDisplay:10.37 W/m2 SCT
00:32 53.6 °F 49.8 °F 29.81 in West 10.4 mph 10.4 mph 87% 0.02 in WeatherDisplay:10.37 W/m2 -RA
00:47 52.5 °F 48.4 °F 29.82 in WNW 9.2 mph 9.2 mph 86% 0.00 in WeatherDisplay:10.37 W/m2 SCT
00:52 52.1 °F 47.7 °F 29.83 in NNW 8.1 mph 8.1 mph 85% 0.00 in WeatherDisplay:10.37 W/m2 BKN
01:03 51.4 °F 46.7 °F 29.84 in West 9.2 mph 9.2 mph 84% 0.00 in WeatherDisplay:10.37 W/m2 BKN
01:08 51.2 °F 46.5 °F 29.84 in SW 9.2 mph 9.2 mph 84% 0.00 in WeatherDisplay:10.37 W/m2 BKN
01:18 50.7 °F 45.7 °F 29.85 in WSW 5.8 mph 5.8 mph 83% 0.00 in WeatherDisplay:10.37 W/m2 BKN
01:33 49.9 °F 44.3 °F 29.86 in WNW 8.1 mph 8.1 mph 81% 0.00 in WeatherDisplay:10.37 W/m2 BKN
01:43 49.5 °F 43.3 °F 29.87 in West 8.1 mph 8.1 mph 79% 0.00 in WeatherDisplay:10.37 W/m2 BKN
01:48 49.3 °F 42.7 °F 29.87 in West 5.8 mph 5.8 mph 78% 0.00 in WeatherDisplay:10.37 W/m2 BKN
01:53 49.2 °F 42.6 °F 29.87 in WSW 9.2 mph 9.2 mph 78% 0.00 in WeatherDisplay:10.37 W/m2 BKN
01:58 48.8 °F 42.2 °F 29.87 in WSW 9.2 mph 9.2 mph 78% 0.00 in WeatherDisplay:10.37 W/m2 BKN
02:04 48.6 °F 41.7 °F 29.87 in SSW 5.8 mph 5.8 mph 77% 0.00 in WeatherDisplay:10.37 W/m2 BKN
02:09 48.3 °F 41.8 °F 29.87 in West 5.8 mph 5.8 mph 78% 0.00 in WeatherDisplay:10.37 W/m2 BKN
02:14 48.1 °F 41.6 °F 29.87 in WSW 9.2 mph 9.2 mph 78% 0.00 in WeatherDisplay:10.37 W/m2 BKN
02:19 48.0 °F 41.5 °F 29.88 in West 9.2 mph 9.2 mph 78% 0.00 in WeatherDisplay:10.37 W/m2 BKN
02:24 47.8 °F 40.9 °F 29.88 in WNW 5.8 mph 5.8 mph 77% 0.00 in WeatherDisplay:10.37 W/m2 BKN
02:39 47.2 °F 40.7 °F 29.89 in SE 10.4 mph 10.4 mph 78% 0.00 in WeatherDisplay:10.37 W/m2 SCT
02:59 47.1 °F 40.3 °F 29.89 in SSE 8.1 mph 8.1 mph 77% 0.00 in WeatherDisplay:10.37 W/m2 SCT
03:05 47.1 °F 40.6 °F 29.89 in SE 1.0 mph 6.0 mph 78% 0.00 in WeatherDisplay:10.37 W/m2 BKN
03:15 47.1 °F 40.9 °F 29.89 in West 5.8 mph 5.8 mph 79% 0.00 in WeatherDisplay:10.37 W/m2 BKN
03:30 46.7 °F 39.2 °F 29.91 in SSW 8.1 mph 8.1 mph 75% 0.00 in WeatherDisplay:10.37 W/m2 BKN
03:35 46.5 °F 39.3 °F 29.91 in SSW 8.1 mph 8.1 mph 76% 0.00 in WeatherDisplay:10.37 W/m2 BKN
03:50 46.0 °F 38.5 °F 29.92 in SE 8.1 mph 8.1 mph 75% 0.00 in WeatherDisplay:10.37 W/m2 BKN
03:55 45.8 °F 38.0 °F 29.93 in SSE 9.2 mph   74% 0.00 in WeatherDisplay:10.37 W/m2 BKN
04:00 45.7 °F 38.2 °F 29.92 in SSE 9.2 mph   75% 0.00 in WeatherDisplay:10.37 W/m2 BKN
04:05 45.5 °F 38.0 °F 29.93 in West 3.5 mph 3.5 mph 75% 0.00 in WeatherDisplay:10.37 W/m2 OVC
04:10 45.5 °F 38.4 °F 29.93 in West 9.2 mph 9.2 mph 76% 0.00 in WeatherDisplay:10.37 W/m2 OVC
04:16 45.4 °F 37.6 °F 29.93 in ESE 9.2 mph 9.2 mph 74% 0.00 in WeatherDisplay:10.37 W/m2 OVC
04:26 45.2 °F 37.4 °F 29.93 in SE 6.9 mph 6.9 mph 74% 0.00 in WeatherDisplay:10.37 W/m2 OVC
04:31 45.1 °F 37.6 °F 29.94 in North 5.8 mph 5.8 mph 75% 0.00 in WeatherDisplay:10.37 W/m2 OVC
04:36 45.0 °F 37.9 °F 29.94 in NW 5.8 mph 5.8 mph 76% 0.00 in WeatherDisplay:10.37 W/m2 OVC
04:41 44.9 °F 37.5 °F 29.95 in NW 4.6 mph 4.6 mph 75% 0.00 in WeatherDisplay:10.37 W/m2 OVC
04:51 44.7 °F 36.9 °F 29.95 in NNW 11.5 mph 11.5 mph 74% 0.00 in WeatherDisplay:10.37 W/m2 OVC
04:56 44.5 °F 36.7 °F 29.95 in WNW 11.5 mph 11.5 mph 74% 0.00 in WeatherDisplay:10.37 W/m2 OVC
05:01 44.4 °F 36.6 °F 29.95 in WNW 8.1 mph 8.1 mph 74% 0.00 in WeatherDisplay:10.37 W/m2 OVC
05:06 44.3 °F 36.5 °F 29.96 in WNW 5.8 mph 5.8 mph 74% 0.00 in WeatherDisplay:10.37 W/m2 OVC
05:11 44.2 °F 36.8 °F 29.96 in ESE 5.8 mph 5.8 mph 75% 0.00 in WeatherDisplay:10.37 W/m2 OVC
05:17 44.1 °F 36.7 °F 29.96 in NE 5.8 mph   75% 0.00 in WeatherDisplay:10.37 W/m2 OVC
05:22 44.0 °F 37.3 °F 29.96 in North 4.6 mph 4.6 mph 77% 0.00 in WeatherDisplay:10.37 W/m2 OVC
05:27 44.0 °F 36.9 °F 29.96 in NE 4.6 mph 4.6 mph 76% 0.00 in WeatherDisplay:10.37 W/m2 OVC
05:32 43.9 °F 37.2 °F 29.96 in SE 4.6 mph   77% 0.00 in WeatherDisplay:10.37 W/m2 OVC
05:42 43.9 °F 36.8 °F 29.97 in SW 3.5 mph   76% 0.00 in WeatherDisplay:10.37 W/m2 OVC
05:52 43.7 °F 37.0 °F 29.98 in NNW 2.3 mph 2.3 mph 77% 0.00 in WeatherDisplay:10.37 W/m2 OVC
05:57 43.7 °F 37.0 °F 29.98 in SSE 4.6 mph   77% 0.00 in WeatherDisplay:10.37 W/m2 OVC
06:07 43.6 °F 36.9 °F 29.98 in NW 4.6 mph 4.6 mph 77% 0.00 in WeatherDisplay:10.37 W/m2 BKN
06:12 43.6 °F 36.2 °F 29.99 in NE 5.8 mph 5.8 mph 75% 0.00 in WeatherDisplay:10.37 W/m2 BKN
06:17 43.7 °F 36.3 °F 29.99 in East 5.8 mph 5.8 mph 75% 0.00 in WeatherDisplay:10.37 W/m2 BKN
06:23 43.7 °F 36.3 °F 29.99 in SW 5.8 mph 5.8 mph 75% 0.00 in WeatherDisplay:10.37 W/m2 BKN
06:28 43.6 °F 36.5 °F 29.99 in South 4.6 mph 4.6 mph 76% 0.00 in WeatherDisplay:10.37 W/m2 BKN
06:33 43.6 °F 36.5 °F 29.99 in West 4.6 mph 4.6 mph 76% 0.00 in WeatherDisplay:10.37 W/m2 BKN
06:38 43.5 °F 36.8 °F 30.00 in West 3.5 mph 3.5 mph 77% 0.00 in WeatherDisplay:10.37 W/m2 BKN
06:43 43.5 °F 36.4 °F 30.00 in WSW 6.9 mph 6.9 mph 76% 0.00 in WeatherDisplay:10.37 W/m2 BKN
06:48 43.4 °F 36.0 °F 30.00 in South 6.9 mph 6.9 mph 75% 0.00 in WeatherDisplay:10.37 W/m2 BKN
06:58 43.1 °F 36.0 °F 30.00 in NNW 6.9 mph 6.9 mph 76% 0.00 in WeatherDisplay:10.37 W/m2 BKN
07:03 43.0 °F 35.6 °F 30.00 in NNW 4.6 mph 4.6 mph 75% 0.00 in WeatherDisplay:10.37 W/m2 OVC
07:08 42.9 °F 35.5 °F 30.00 in West 3.5 mph 3.5 mph 75% 0.00 in WeatherDisplay:10.37 W/m2 OVC
07:13 42.8 °F 35.4 °F 30.01 in WSW 4.6 mph 4.6 mph 75% 0.00 in WeatherDisplay:10.37 W/m2 OVC
07:24 42.7 °F 35.3 °F 30.01 in NE 2.3 mph   75% 0.00 in WeatherDisplay:10.37 W/m2 OVC
07:34 42.6 °F 34.9 °F 30.01 in ESE 5.8 mph 5.8 mph 74% 0.00 in WeatherDisplay:10.37 W/m2 OVC
07:44 42.5 °F 34.1 °F 30.02 in SE 4.6 mph 4.6 mph 72% 0.00 in WeatherDisplay:10.37 W/m2 OVC
07:49 42.4 °F 33.7 °F 30.02 in South 4.6 mph 4.6 mph 71% 0.00 in WeatherDisplay:10.37 W/m2 OVC
07:54 42.4 °F 33.7 °F 30.02 in WNW 5.8 mph 5.8 mph 71% 0.00 in WeatherDisplay:10.37 W/m2 OVC
07:59 42.3 °F 33.6 °F 30.02 in North 5.8 mph 5.8 mph 71% 0.00 in WeatherDisplay:10.37 W/m2 OVC
08:04 42.2 °F 33.8 °F 30.02 in North 5.8 mph 5.8 mph 72% 0.00 in WeatherDisplay:10.37 W/m2 OVC
08:10 42.2 °F 33.5 °F 30.02 in ESE 5.8 mph   71% 0.00 in WeatherDisplay:10.37 W/m2 OVC
08:15 42.3 °F 33.6 °F 30.02 in South 5.8 mph   71% 0.00 in WeatherDisplay:10.37 W/m2 OVC
08:30 42.3 °F 32.8 °F 30.03 in South 6.9 mph   69% 0.00 in WeatherDisplay:10.37 W/m2 OVC
08:35 42.4 °F 32.6 °F 30.03 in East 6.9 mph 6.9 mph 68% 0.00 in WeatherDisplay:10.37 W/m2 OVC
08:45 42.9 °F 33.4 °F 30.04 in East 8.1 mph 8.1 mph 69% 0.00 in WeatherDisplay:10.37 W/m2 OVC
08:55 43.7 °F 34.2 °F 30.04 in NW 2.3 mph 2.3 mph 69% 0.00 in WeatherDisplay:10.37 W/m2 OVC
09:00 43.7 °F 33.8 °F 30.04 in West 6.9 mph 6.9 mph 68% 0.00 in WeatherDisplay:10.37 W/m2 OVC
09:11 43.9 °F 34.4 °F 30.05 in West 4.6 mph   69% 0.00 in WeatherDisplay:10.37 W/m2 BKN
09:16 44.0 °F 33.7 °F 30.05 in WNW 5.8 mph 5.8 mph 67% 0.00 in WeatherDisplay:10.37 W/m2 BKN
09:21 43.8 °F 33.9 °F 30.05 in SSW 5.8 mph 5.8 mph 68% 0.00 in WeatherDisplay:10.37 W/m2 BKN
09:26 44.1 °F 33.8 °F 30.05 in SSE 4.6 mph 4.6 mph 67% 0.00 in WeatherDisplay:10.37 W/m2 BKN
09:31 44.4 °F 34.5 °F 30.05 in South 3.5 mph 3.5 mph 68% 0.00 in WeatherDisplay:10.37 W/m2 BKN
09:56 45.8 °F 34.3 °F 30.06 in WSW 3.5 mph 3.5 mph 64% 0.00 in WeatherDisplay:10.37 W/m2 BKN
10:01 46.1 °F 35.0 °F 30.06 in WSW 3.5 mph 3.5 mph 65% 0.00 in WeatherDisplay:10.37 W/m2 FEW
10:11 46.6 °F 35.5 °F 30.06 in West 4.6 mph 4.6 mph 65% 0.00 in WeatherDisplay:10.37 W/m2 FEW
10:22 47.5 °F 34.7 °F 30.06 in WSW 5.8 mph 5.8 mph 61% 0.00 in WeatherDisplay:10.37 W/m2 FEW
10:27 47.6 °F 34.8 °F 30.06 in WSW 4.6 mph 4.6 mph 61% 0.00 in WeatherDisplay:10.37 W/m2 FEW
10:37 48.1 °F 35.7 °F 30.06 in SSE 5.8 mph 5.8 mph 62% 0.00 in WeatherDisplay:10.37 W/m2 FEW
10:42 48.3 °F 34.6 °F 30.07 in North 5.8 mph 5.8 mph 59% 0.00 in WeatherDisplay:10.37 W/m2 FEW
10:52 48.7 °F 34.1 °F 30.07 in WSW 5.8 mph 5.8 mph 57% 0.00 in WeatherDisplay:10.37 W/m2 FEW
10:57 48.6 °F 34.5 °F 30.07 in North 5.8 mph 5.8 mph 58% 0.00 in WeatherDisplay:10.37 W/m2 FEW
11:02 48.7 °F 34.6 °F 30.07 in WNW 4.6 mph 4.6 mph 58% 0.00 in WeatherDisplay:10.37 W/m2 FEW
11:10 48.7 °F 34.1 °F 30.07 in WSW 4.6 mph 4.6 mph 57% 0.00 in WeatherDisplay:10.37 W/m2 FEW
11:15 48.8 °F 35.1 °F 30.07 in West 4.6 mph 4.6 mph 59% 0.00 in WeatherDisplay:10.37 W/m2 FEW
11:25 48.9 °F 35.6 °F 30.07 in West 4.6 mph 4.6 mph 60% 0.00 in WeatherDisplay:10.37 W/m2 FEW
11:30 49.1 °F 34.5 °F 30.07 in NW 4.6 mph 4.6 mph 57% 0.00 in WeatherDisplay:10.37 W/m2 FEW
11:40 48.9 °F 33.9 °F 30.07 in SSW 4.6 mph 4.6 mph 56% 0.00 in WeatherDisplay:10.37 W/m2 FEW
11:45 48.6 °F 34.0 °F 30.07 in NNE 4.6 mph 4.6 mph 57% 0.00 in WeatherDisplay:10.37 W/m2 FEW
11:50 48.9 °F 35.6 °F 30.07 in WNW 4.6 mph 4.6 mph 60% 0.00 in WeatherDisplay:10.37 W/m2 FEW
11:55 49.3 °F 34.7 °F 30.06 in South 4.6 mph 4.6 mph 57% 0.00 in WeatherDisplay:10.37 W/m2 FEW
12:00 49.5 °F 34.9 °F 30.07 in South 4.6 mph 4.6 mph 57% 0.00 in WeatherDisplay:10.37 W/m2 FEW
12:11 49.6 °F 34.1 °F 30.06 in West 4.6 mph 4.6 mph 55% 0.00 in WeatherDisplay:10.37 W/m2 FEW
12:16 49.5 °F 33.5 °F 30.06 in NW 5.8 mph 5.8 mph 54% 0.00 in WeatherDisplay:10.37 W/m2 FEW
12:21 49.7 °F 34.2 °F 30.06 in SE 5.8 mph 5.8 mph 55% 0.00 in WeatherDisplay:10.37 W/m2 FEW
12:26 49.7 °F 33.2 °F 30.05 in SSW 6.9 mph 6.9 mph 53% 0.00 in WeatherDisplay:10.37 W/m2 FEW
12:36 50.6 °F 34.6 °F 30.05 in WSW 4.6 mph 4.6 mph 54% 0.00 in WeatherDisplay:10.37 W/m2 FEW
12:41 51.1 °F 33.6 °F 30.05 in NW 3.5 mph 3.5 mph 51% 0.00 in WeatherDisplay:10.37 W/m2 FEW
12:46 51.3 °F 33.8 °F 30.06 in WNW 3.5 mph 3.5 mph 51% 0.00 in WeatherDisplay:10.37 W/m2 FEW
12:51 51.3 °F 34.3 °F 30.05 in WSW 4.6 mph 4.6 mph 52% 0.00 in WeatherDisplay:10.37 W/m2 FEW
12:56 51.1 °F 33.1 °F 30.05 in South 9.2 mph 9.2 mph 50% 0.00 in WeatherDisplay:10.37 W/m2 FEW
13:01 51.2 °F 33.2 °F 30.05 in SSW 9.2 mph 9.2 mph 50% 0.00 in WeatherDisplay:10.37 W/m2 FEW
13:17 51.8 °F 34.2 °F 30.05 in WNW 8.1 mph 8.1 mph 51% 0.00 in WeatherDisplay:10.37 W/m2 FEW
13:22 51.8 °F 33.7 °F 30.05 in West 3.5 mph 3.5 mph 50% 0.00 in WeatherDisplay:10.37 W/m2 FEW
13:27 51.8 °F 34.2 °F 30.05 in WNW 3.5 mph 3.5 mph 51% 0.00 in WeatherDisplay:10.37 W/m2 FEW
13:32 51.5 °F 34.0 °F 30.05 in WNW 5.8 mph 5.8 mph 51% 0.00 in WeatherDisplay:10.37 W/m2 FEW
13:37 51.7 °F 34.6 °F 30.05 in SW 5.8 mph 5.8 mph 52% 0.00 in WeatherDisplay:10.37 W/m2 FEW
13:47 51.4 °F 33.9 °F 30.05 in SE 4.6 mph 4.6 mph 51% 0.00 in WeatherDisplay:10.37 W/m2 FEW
13:57 50.9 °F 32.9 °F 30.05 in South 4.6 mph 4.6 mph 50% 0.00 in WeatherDisplay:10.37 W/m2 FEW
14:02 50.6 °F 33.1 °F 30.05 in South 4.6 mph 4.6 mph 51% 0.00 in WeatherDisplay:10.37 W/m2 FEW
14:07 50.6 °F 33.1 °F 30.05 in SSE 4.6 mph 4.6 mph 51% 0.00 in WeatherDisplay:10.37 W/m2 FEW
14:23 50.7 °F 32.2 °F 30.05 in WSW 4.6 mph 4.6 mph 49% 0.00 in WeatherDisplay:10.37 W/m2 FEW
14:28 50.7 °F 32.7 °F 30.05 in SE 4.6 mph 4.6 mph 50% 0.00 in WeatherDisplay:10.37 W/m2 FEW
14:33 50.9 °F 33.4 °F 30.05 in SSE 4.6 mph 4.6 mph 51% 0.00 in WeatherDisplay:10.37 W/m2 FEW
14:38 50.7 °F 32.7 °F 30.05 in WNW 5.8 mph 5.8 mph 50% 0.00 in WeatherDisplay:10.37 W/m2 FEW
14:43 50.4 °F 32.4 °F 30.05 in WSW 6.9 mph 6.9 mph 50% 0.00 in WeatherDisplay:10.37 W/m2 FEW
14:48 50.3 °F 32.8 °F 30.05 in SSW 6.9 mph 6.9 mph 51% 0.00 in WeatherDisplay:10.37 W/m2 FEW
14:53 50.3 °F 32.8 °F 30.05 in WSW 6.9 mph 6.9 mph 51% 0.00 in WeatherDisplay:10.37 W/m2 FEW
14:58 50.5 °F 32.5 °F 30.05 in SW 9.2 mph 9.2 mph 50% 0.00 in WeatherDisplay:10.37 W/m2 FEW
15:03 50.6 °F 32.6 °F 30.05 in South 9.2 mph   50% 0.00 in WeatherDisplay:10.37 W/m2 FEW
15:08 50.7 °F 32.2 °F 30.05 in South 9.2 mph 9.2 mph 49% 0.00 in WeatherDisplay:10.37 W/m2 FEW
15:13 50.6 °F 31.6 °F 30.05 in SE 6.9 mph 6.9 mph 48% 0.00 in WeatherDisplay:10.37 W/m2 FEW
15:18 50.5 °F 31.5 °F 30.05 in South 6.9 mph 6.9 mph 48% 0.00 in WeatherDisplay:10.37 W/m2 FEW
15:23 50.6 °F 32.1 °F 30.05 in WSW 4.6 mph   49% 0.00 in WeatherDisplay:10.37 W/m2 FEW
15:31 50.3 °F 32.4 °F 30.05 in WNW 5.8 mph 5.8 mph 50% 0.00 in WeatherDisplay:10.37 W/m2 FEW
15:41 50.1 °F 31.7 °F 30.06 in NW 4.6 mph 4.6 mph 49% 0.00 in WeatherDisplay:10.37 W/m2 FEW
15:46 50.1 °F 32.7 °F 30.06 in NNW 4.6 mph 4.6 mph 51% 0.00 in WeatherDisplay:10.37 W/m2 FEW
15:56 50.0 °F 33.1 °F 30.06 in WNW 4.6 mph   52% 0.00 in WeatherDisplay:10.37 W/m2 FEW
16:06 49.8 °F 31.4 °F 30.06 in SE 6.9 mph 6.9 mph 49% 0.00 in WeatherDisplay:10.37 W/m2 CLR
16:11 49.7 °F 31.3 °F 30.07 in SSW 6.9 mph 6.9 mph 49% 0.00 in WeatherDisplay:10.37 W/m2 CLR
16:32 49.0 °F 31.2 °F 30.07 in WNW 6.9 mph 6.9 mph 50% 0.00 in WeatherDisplay:10.37 W/m2 CLR
16:37 48.8 °F 32.4 °F 30.07 in West 6.9 mph 6.9 mph 53% 0.00 in WeatherDisplay:10.37 W/m2 CLR
16:47 48.3 °F 32.4 °F 30.07 in West 3.5 mph 3.5 mph 54% 0.00 in WeatherDisplay:10.37 W/m2 CLR
16:52 48.1 °F 31.8 °F 30.08 in NNE 2.3 mph 2.3 mph 53% 0.00 in WeatherDisplay:10.37 W/m2 CLR
16:57 48.1 °F 31.3 °F 30.08 in East 2.3 mph   52% 0.00 in WeatherDisplay:10.37 W/m2 CLR
17:02 48.0 °F 32.1 °F 30.07 in SSE 2.3 mph 2.3 mph 54% 0.00 in WeatherDisplay:10.37 W/m2 CLR
17:07 47.6 °F 31.3 °F 30.07 in SW 3.5 mph 3.5 mph 53% 0.00 in WeatherDisplay:10.37 W/m2 CLR
17:12 47.5 °F 32.6 °F 30.07 in WSW 3.5 mph   56% 0.00 in WeatherDisplay:10.37 W/m2 CLR
17:17 47.3 °F 31.5 °F 30.07 in SSW 2.3 mph 2.3 mph 54% 0.00 in WeatherDisplay:10.37 W/m2 CLR
17:22 47.1 °F 31.7 °F 30.08 in East 2.3 mph   55% 0.00 in WeatherDisplay:10.37 W/m2 CLR
17:28 46.9 °F 32.4 °F 30.08 in ESE 2.3 mph   57% 0.00 in WeatherDisplay:10.37 W/m2 CLR
17:33 46.6 °F 32.2 °F 30.08 in NNW 2.3 mph   57% 0.00 in WeatherDisplay:10.37 W/m2 CLR
17:43 46.1 °F 31.7 °F 30.09 in ESE 3.5 mph   57% 0.00 in WeatherDisplay:10.37 W/m2 CLR
17:48 45.8 °F 33.1 °F 30.09 in ESE 3.5 mph   61% 0.00 in WeatherDisplay:10.37 W/m2 CLR
17:53 45.5 °F 31.6 °F 30.09 in ESE 1.2 mph 1.2 mph 58% 0.00 in WeatherDisplay:10.37 W/m2 CLR
18:03 45.0 °F 32.3 °F 30.10 in West 1.2 mph   61% 0.00 in WeatherDisplay:10.37 W/m2 CLR
18:08 44.7 °F 32.5 °F 30.10 in SW 3.5 mph   62% 0.00 in WeatherDisplay:10.37 W/m2 CLR
18:18 44.2 °F 32.0 °F 30.11 in SW 1.2 mph   62% 0.00 in WeatherDisplay:10.37 W/m2 CLR
18:23 43.9 °F 32.1 °F 30.11 in NNW 1.2 mph   63% 0.00 in WeatherDisplay:10.37 W/m2 CLR
18:28 43.7 °F 32.3 °F 30.12 in North 1.2 mph   64% 0.00 in WeatherDisplay:10.37 W/m2 CLR
18:34 43.5 °F 32.1 °F 30.12 in NW 1.2 mph   64% 0.00 in WeatherDisplay:10.37 W/m2 CLR
18:39 43.3 °F 32.3 °F 30.13 in West 1.2 mph   65% 0.00 in WeatherDisplay:10.37 W/m2 CLR
18:44 43.3 °F 31.5 °F 30.13 in West 1.2 mph   63% 0.00 in WeatherDisplay:10.37 W/m2 CLR
18:54 43.3 °F 31.5 °F 30.13 in NNE 2.3 mph   63% 0.00 in WeatherDisplay:10.37 W/m2 CLR
19:09 42.8 °F 31.5 °F 30.14 in NNW 1.2 mph 1.2 mph 64% 0.00 in WeatherDisplay:10.37 W/m2 CLR
19:14 42.8 °F 31.1 °F 30.14 in ESE 4.6 mph   63% 0.00 in WeatherDisplay:10.37 W/m2 CLR
19:24 42.8 °F 30.7 °F 30.14 in SSE 1.2 mph   62% 0.00 in WeatherDisplay:10.37 W/m2 CLR
19:40 42.0 °F 31.5 °F 30.14 in Calm   1.0 mph 66% 0.00 in WeatherDisplay:10.37 W/m2 CLR
19:45 41.9 °F 31.4 °F 30.14 in West 1.2 mph   66% 0.00 in WeatherDisplay:10.37 W/m2 CLR
19:50 41.7 °F 31.2 °F 30.14 in West 1.2 mph   66% 0.00 in WeatherDisplay:10.37 W/m2 CLR
19:55 41.6 °F 31.4 °F 30.15 in West 1.2 mph   67% 0.00 in WeatherDisplay:10.37 W/m2 CLR
20:00 41.5 °F 31.4 °F 30.15 in West 1.2 mph   67% 0.00 in WeatherDisplay:10.37 W/m2 CLR
20:05 41.3 °F 31.5 °F 30.15 in WNW 1.2 mph   68% 0.00 in WeatherDisplay:10.37 W/m2 CLR
20:10 41.1 °F 31.3 °F 30.15 in Calm     68% 0.00 in WeatherDisplay:10.37 W/m2 CLR
20:20 40.7 °F 31.7 °F 30.15 in Calm     70% 0.00 in WeatherDisplay:10.37 W/m2 CLR
20:36 40.1 °F 31.8 °F 30.16 in Calm     72% 0.00 in WeatherDisplay:10.37 W/m2 CLR
20:41 39.9 °F 31.3 °F 30.16 in Calm     71% 0.00 in WeatherDisplay:10.37 W/m2 CLR
20:56 39.6 °F 31.3 °F 30.16 in Calm     72% 0.00 in WeatherDisplay:10.37 W/m2 CLR
21:01 39.5 °F 31.2 °F 30.16 in WNW 1.2 mph 1.2 mph 72% 0.00 in WeatherDisplay:10.37 W/m2 CLR
21:06 39.7 °F 31.4 °F 30.16 in West 1.2 mph   72% 0.00 in WeatherDisplay:10.37 W/m2 CLR
21:20 39.6 °F 31.3 °F 30.17 in WNW 1.2 mph   72% 0.00 in WeatherDisplay:10.37 W/m2 CLR
21:25 39.6 °F 31.3 °F 30.17 in WNW 1.2 mph   72% 0.00 in WeatherDisplay:10.37 W/m2 CLR
21:30 39.5 °F 31.6 °F 30.18 in WNW 1.2 mph   73% 0.00 in WeatherDisplay:10.37 W/m2 CLR
21:35 39.4 °F 31.5 °F 30.18 in WNW 1.2 mph   73% 0.00 in WeatherDisplay:10.37 W/m2 CLR
21:40 39.4 °F 31.5 °F 30.18 in WNW 1.2 mph   73% 0.00 in WeatherDisplay:10.37 W/m2 CLR
21:45 39.4 °F 31.1 °F 30.18 in WNW 1.2 mph 1.2 mph 72% 0.00 in WeatherDisplay:10.37 W/m2 CLR
21:51 39.5 °F 30.9 °F 30.18 in West 1.2 mph   71% 0.00 in WeatherDisplay:10.37 W/m2 CLR
22:01 39.5 °F 30.5 °F 30.19 in NW 1.2 mph   70% 0.00 in WeatherDisplay:10.37 W/m2 CLR
22:06 39.4 °F 30.4 °F 30.19 in North 1.2 mph   70% 0.00 in WeatherDisplay:10.37 W/m2 CLR
22:11 39.5 °F 29.8 °F 30.19 in North 2.3 mph 2.3 mph 68% 0.00 in WeatherDisplay:10.37 W/m2 CLR
22:26 39.9 °F 29.5 °F 30.19 in SSE 4.6 mph   66% 0.00 in WeatherDisplay:10.37 W/m2 CLR
22:39 39.7 °F 29.3 °F 30.19 in SSE 4.6 mph   66% 0.00 in WeatherDisplay:10.37 W/m2 CLR
22:44 39.5 °F 29.1 °F 30.19 in NNE 3.5 mph   66% 0.00 in WeatherDisplay:10.37 W/m2 CLR
22:49 39.4 °F 29.0 °F 30.18 in NE 2.3 mph   66% 0.00 in WeatherDisplay:10.37 W/m2 CLR
22:59 39.0 °F 29.7 °F 30.19 in WNW 1.2 mph   69% 0.00 in WeatherDisplay:10.37 W/m2 CLR
23:09 38.5 °F 29.6 °F 30.20 in WNW 1.2 mph   70% 0.00 in WeatherDisplay:10.37 W/m2 CLR
23:14 38.2 °F 29.3 °F 30.20 in Calm     70% 0.00 in WeatherDisplay:10.37 W/m2 CLR
23:20 38.0 °F 29.1 °F 30.20 in Calm   1.0 mph 70% 0.00 in WeatherDisplay:10.37 W/m2 CLR
23:35 37.2 °F 29.3 °F 30.20 in Calm     73% 0.00 in WeatherDisplay:10.37 W/m2 CLR
23:40 36.9 °F 29.1 °F 30.20 in Calm     73% 0.00 in WeatherDisplay:10.37 W/m2 CLR
23:45 36.9 °F 29.4 °F 30.20 in Calm     74% 0.00 in WeatherDisplay:10.37 W/m2 CLR
23:50 36.5 °F 29.3 °F 30.20 in Calm     75% 0.00 in WeatherDisplay:10.37 W/m2 CLR
23:55 36.3 °F 29.5 °F 30.21 in Calm     76% 0.00 in WeatherDisplay:10.37 W/m2 CLR
Piedmont Bend
Compliments of Weather Underground - 4 mb